Time;durP1;ratioP1;P1;durP2;ratioP2;P2;SDS_P1;SDS_P2;PMS_P1;PMS_P2;Temp;Humidity;BMP_temperature;BMP_pressure;BME280_temperature;BME280_humidity;BME280_pressure;Samples;Min_cycle;Max_cycle;Signal;HPM_P1;HPM_P2
2022/05/29 00:01:58;;;;;;;4.73;2.87;;;;;;;10.11;82.76;95966.78;5035621;28;20754;-68
2022/05/29 00:04:25;;;;;;;5.10;3.10;;;;;;;10.18;81.85;95970.31;5035714;28;20234;-68
2022/05/29 00:06:56;;;;;;;4.33;2.93;;;;;;;10.25;81.48;95970.41;5035887;28;20233;-67
2022/05/29 00:09:31;;;;;;;4.83;3.40;;;;;;;10.19;81.87;95964.03;5035648;28;20288;-67
2022/05/29 00:11:59;;;;;;;9.13;3.17;;;;;;;10.05;81.56;95967.47;5035802;28;20258;-67
2022/05/29 00:14:26;;;;;;;6.07;3.27;;;;;;;9.89;82.02;95969.41;5035137;28;20203;-67
2022/05/29 00:16:52;;;;;;;4.97;3.20;;;;;;;9.71;82.81;95967.13;5035824;28;20221;-68
2022/05/29 00:19:19;;;;;;;3.87;2.67;;;;;;;9.75;82.51;95965.78;5035143;28;20213;-67
2022/05/29 00:21:45;;;;;;;5.53;2.23;;;;;;;9.78;81.95;95962.78;5036555;28;20204;-68
2022/05/29 00:24:12;;;;;;;4.53;3.00;;;;;;;9.70;82.24;95962.06;5034664;28;20224;-67
2022/05/29 00:26:38;;;;;;;6.10;2.90;;;;;;;9.70;81.71;95962.06;5034837;28;20244;-67
2022/05/29 00:29:07;;;;;;;4.97;3.50;;;;;;;9.79;81.90;95963.63;5035702;28;20546;-68
2022/05/29 00:31:34;;;;;;;5.23;2.80;;;;;;;9.61;82.52;95962.28;5035888;28;20297;-68
2022/05/29 00:34:00;;;;;;;7.73;2.70;;;;;;;9.56;82.34;95956.75;5034717;28;20205;-67
2022/05/29 00:36:32;;;;;;;4.23;2.70;;;;;;;9.66;82.49;95949.41;5035321;28;20217;-67
2022/05/29 00:38:59;;;;;;;5.57;2.57;;;;;;;9.49;82.27;95954.00;5035100;28;20744;-68
2022/05/29 00:41:30;;;;;;;4.27;2.83;;;;;;;9.62;83.00;95948.16;5035148;28;20201;-68
2022/05/29 00:44:13;;;;;;;8.07;3.30;;;;;;;9.78;82.40;95944.38;5034749;28;20232;-68
2022/05/29 00:46:44;;;;;;;6.93;3.30;;;;;;;9.54;82.91;95941.13;5035419;28;20229;-68
2022/05/29 00:49:12;;;;;;;6.23;3.50;;;;;;;9.48;84.05;95946.28;5035533;28;20580;-68
2022/05/29 00:51:42;;;;;;;5.33;3.40;;;;;;;9.71;82.77;95942.63;5035220;28;20205;-67
2022/05/29 00:54:09;;;;;;;6.47;2.70;;;;;;;9.58;83.64;95933.72;5034912;28;20201;-67
2022/05/29 00:56:38;;;;;;;5.87;2.60;;;;;;;9.69;83.58;95928.84;5035224;28;20339;-68
2022/05/29 00:59:06;;;;;;;5.20;2.53;;;;;;;9.70;83.53;95925.22;5035162;28;20205;-67
2022/05/29 01:01:35;;;;;;;6.27;2.80;;;;;;;9.65;84.50;95926.72;5035590;28;20205;-68
2022/05/29 01:04:02;;;;;;;7.20;2.90;;;;;;;9.47;84.91;95923.59;5034326;28;20259;-67
2022/05/29 01:06:28;;;;;;;5.07;3.67;;;;;;;9.58;84.33;95916.13;5035244;28;20404;-68
2022/05/29 01:08:59;;;;;;;6.17;3.10;;;;;;;9.72;84.33;95918.78;5035357;28;20258;-68
2022/05/29 01:11:34;;;;;;;4.80;3.10;;;;;;;9.76;84.42;95914.78;5035709;28;20240;-67
2022/05/29 01:14:11;;;;;;;8.80;3.00;;;;;;;9.73;84.72;95925.66;5033962;28;20197;-68
2022/05/29 01:16:46;;;;;;;7.10;2.70;;;;;;;9.70;85.12;95910.25;5035143;28;20260;-68
2022/05/29 01:19:40;;;;;;;4.77;3.00;;;;;;;9.61;85.51;95909.69;5037179;28;20208;-67
2022/05/29 01:22:20;;;;;;;4.83;2.83;;;;;;;9.55;86.39;95903.31;5038434;28;20201;-68
2022/05/29 01:25:14;;;;;;;6.03;2.50;;;;;;;9.65;85.98;95903.06;5038752;28;20228;-67
2022/05/29 01:27:53;;;;;;;5.77;2.80;;;;;;;9.70;85.58;95894.47;5038667;28;20348;-67
2022/05/29 01:30:23;;;;;;;3.07;2.43;;;;;;;9.71;86.83;95892.63;5038730;28;20209;-67
2022/05/29 01:33:06;;;;;;;4.77;2.70;;;;;;;9.69;86.94;95887.56;5039056;28;20915;-67
2022/05/29 01:35:36;;;;;;;4.00;2.60;;;;;;;9.83;87.40;95889.38;5038492;28;20236;-68
2022/05/29 01:38:07;;;;;;;4.13;2.60;;;;;;;9.85;88.13;95878.66;5037862;28;20208;-68
2022/05/29 01:40:39;;;;;;;2.93;2.53;;;;;;;10.00;87.41;95879.53;5039184;28;20212;-68
2022/05/29 01:43:27;;;;;;;4.20;2.70;;;;;;;10.11;87.18;95877.25;5038403;28;20601;-68
2022/05/29 01:45:59;;;;;;;4.37;3.00;;;;;;;9.98;88.15;95868.34;5038504;28;20221;-68
2022/05/29 01:48:39;;;;;;;4.73;2.80;;;;;;;9.85;88.32;95855.81;5038759;28;20208;-68
2022/05/29 01:51:13;;;;;;;5.40;2.60;;;;;;;9.76;88.93;95856.91;5038756;28;20205;-68
2022/05/29 01:53:43;;;;;;;4.03;2.80;;;;;;;9.72;89.45;95855.66;5038057;28;20478;-68
2022/05/29 01:56:18;;;;;;;3.73;2.60;;;;;;;9.95;88.92;95855.53;5038696;28;20224;-68
2022/05/29 01:58:52;;;;;;;5.27;3.13;;;;;;;9.94;90.02;95853.91;5038293;28;20201;-68
2022/05/29 02:01:21;;;;;;;5.33;2.57;;;;;;;10.03;90.07;95848.41;5038242;28;20213;-67
2022/05/29 02:03:51;;;;;;;8.57;2.80;;;;;;;10.11;90.25;95844.88;5037739;28;20230;-68
2022/05/29 02:06:23;;;;;;;4.00;2.67;;;;;;;10.18;90.21;95843.13;5037908;28;20433;-67
2022/05/29 02:08:53;;;;;;;4.13;2.47;;;;;;;10.00;90.09;95840.06;5037221;28;20212;-68
2022/05/29 02:11:23;;;;;;;3.87;2.57;;;;;;;9.93;90.66;95842.56;5038600;28;20197;-68
2022/05/29 02:13:55;;;;;;;4.63;2.37;;;;;;;10.08;90.13;95834.69;5037967;28;20566;-68
2022/05/29 02:16:29;;;;;;;3.60;2.47;;;;;;;10.13;90.39;95833.16;5034944;28;20229;-68
2022/05/29 02:19:01;;;;;;;7.03;2.90;;;;;;;10.11;90.52;95824.59;5038006;28;20202;-67
2022/05/29 02:21:32;;;;;;;6.57;2.57;;;;;;;10.25;90.29;95825.59;5037577;28;20752;-68
2022/05/29 02:24:02;;;;;;;3.33;2.30;;;;;;;10.07;90.53;95822.50;5036574;28;20217;-68
2022/05/29 02:26:33;;;;;;;2.90;2.20;;;;;;;10.12;90.10;95818.34;5037886;28;20476;-67
2022/05/29 02:29:05;;;;;;;5.37;2.83;;;;;;;10.19;90.41;95821.84;5037928;28;20583;-68
2022/05/29 02:31:42;;;;;;;4.50;2.80;;;;;;;10.22;90.04;95810.16;5037787;28;20228;-68
2022/05/29 02:34:19;;;;;;;3.07;2.30;;;;;;;10.26;89.96;95804.34;5037582;28;20201;-68
2022/05/29 02:36:50;;;;;;;3.20;2.70;;;;;;;10.22;89.41;95804.88;5037350;28;20220;-68
2022/05/29 02:39:25;;;;;;;5.00;2.30;;;;;;;10.00;88.65;95796.09;5037225;28;20201;-68
2022/05/29 02:42:05;;;;;;;4.80;2.53;;;;;;;9.89;89.89;95806.25;5037860;28;20200;-68
2022/05/29 02:44:45;;;;;;;5.23;2.80;;;;;;;9.81;90.07;95794.03;5036734;28;20617;-68
2022/05/29 02:47:25;;;;;;;6.93;2.80;;;;;;;9.98;89.23;95786.75;5036990;28;20228;-67
2022/05/29 02:50:03;;;;;;;6.43;3.03;;;;;;;9.95;88.62;95793.22;5037543;28;20263;-67
2022/05/29 02:52:30;;;;;;;4.40;3.00;;;;;;;9.52;90.92;95797.66;5036918;28;20467;-68
2022/05/29 02:54:58;;;;;;;5.23;2.67;;;;;;;9.39;90.91;95800.09;5037094;28;20198;-67
2022/05/29 02:57:25;;;;;;;27.13;3.00;;;;;;;9.20;92.60;95800.63;5037416;28;20307;-68
2022/05/29 02:59:58;;;;;;;3.80;2.43;;;;;;;9.39;93.52;95792.22;5037069;28;20205;-68
2022/05/29 03:02:37;;;;;;;3.93;2.67;;;;;;;9.49;92.03;95784.88;5036796;28;20438;-68
2022/05/29 03:05:12;;;;;;;4.60;2.70;;;;;;;9.55;91.74;95789.44;5036826;28;20225;-68
2022/05/29 03:07:47;;;;;;;5.97;2.40;;;;;;;9.75;90.20;95786.88;5036741;28;20211;-67
2022/05/29 03:10:17;;;;;;;3.63;2.30;;;;;;;9.52;90.55;95779.25;5037448;28;20203;-68
2022/05/29 03:13:00;;;;;;;5.63;2.80;;;;;;;9.80;89.25;95783.66;5036109;28;20201;-67
2022/05/29 03:15:36;;;;;;;3.13;2.43;;;;;;;9.91;88.93;95780.59;5036892;28;20201;-67
2022/05/29 03:18:21;;;;;;;5.40;2.60;;;;;;;10.00;88.76;95774.25;5036985;28;20725;-68
2022/05/29 03:20:57;;;;;;;6.87;3.30;;;;;;;9.94;89.50;95780.22;5036317;28;20588;-67
2022/05/29 03:23:32;;;;;;;5.20;2.60;;;;;;;9.84;89.58;95784.97;5035834;28;20209;-67
2022/05/29 03:26:03;;;;;;;6.50;2.90;;;;;;;9.94;89.27;95775.78;5036665;28;20595;-68
2022/05/29 03:28:34;;;;;;;4.13;2.73;;;;;;;9.89;89.14;95772.88;5036538;28;20211;-68
2022/05/29 03:31:04;;;;;;;3.50;2.40;;;;;;;9.82;88.23;95779.06;5036478;28;20232;-68
2022/05/29 03:33:32;;;;;;;3.90;2.60;;;;;;;9.81;88.64;95770.34;5035674;28;20243;-67
2022/05/29 03:36:05;;;;;;;6.30;3.07;;;;;;;9.66;89.77;95771.38;5036464;28;20247;-68
2022/05/29 03:38:32;;;;;;;3.77;2.60;;;;;;;9.56;89.99;95770.00;5036577;28;20205;-67
2022/05/29 03:40:59;;;;;;;3.73;2.60;;;;;;;9.54;89.43;95769.38;5035980;28;20478;-68
2022/05/29 03:43:25;;;;;;;6.90;3.10;;;;;;;9.48;89.79;95756.94;5033008;28;20216;-68
2022/05/29 03:45:52;;;;;;;7.27;3.30;;;;;;;9.51;89.05;95764.47;5036920;28;20221;-68
2022/05/29 03:48:19;;;;;;;4.27;2.70;;;;;;;9.57;88.75;95761.09;5036501;28;20201;-67
2022/05/29 03:50:47;;;;;;;3.83;2.40;;;;;;;9.77;86.94;95755.91;5036170;28;20505;-68
2022/05/29 03:53:13;;;;;;;7.03;2.67;;;;;;;9.74;85.70;95748.41;5035665;28;20201;-68
2022/05/29 03:55:40;;;;;;;7.30;2.90;;;;;;;9.85;84.84;95750.56;5036826;28;20221;-68
2022/05/29 03:58:06;;;;;;;5.20;2.60;;;;;;;9.89;84.56;95751.00;5035851;28;20208;-67
2022/05/29 04:00:33;;;;;;;3.00;2.33;;;;;;;9.84;84.71;95748.94;5035711;28;20240;-68
2022/05/29 04:03:01;;;;;;;3.47;2.47;;;;;;;9.93;83.66;95753.09;5035540;28;20208;-68
2022/05/29 04:05:28;;;;;;;4.17;2.50;;;;;;;9.93;85.16;95749.66;5036126;28;20233;-68
2022/05/29 04:13:28;;;;;;;5.30;2.17;;;;;;;10.17;79.53;95754.59;5035231;28;20269;-68
2022/05/29 04:15:54;;;;;;;2.47;1.67;;;;;;;10.31;78.98;95744.03;5035492;28;20213;-68
2022/05/29 04:18:22;;;;;;;3.03;2.00;;;;;;;10.47;78.71;95755.13;5036011;28;20202;-67
2022/05/29 04:20:50;;;;;;;2.47;1.73;;;;;;;10.61;77.80;95740.25;5036212;28;20201;-68
2022/05/29 04:23:19;;;;;;;5.63;1.90;;;;;;;10.60;78.20;95736.84;5034597;28;20212;-68
2022/05/29 04:25:45;;;;;;;4.27;2.03;;;;;;;10.66;77.12;95740.53;5035597;28;20229;-68
2022/05/29 04:28:12;;;;;;;4.23;2.03;;;;;;;10.73;79.19;95733.47;5035864;28;20228;-68
2022/05/29 04:30:38;;;;;;;3.40;1.80;;;;;;;10.60;79.24;95734.19;5035762;28;20654;-68
2022/05/29 04:33:05;;;;;;;3.03;2.10;;;;;;;10.82;80.32;95735.78;5035009;28;20468;-68
2022/05/29 04:35:39;;;;;;;7.13;2.30;;;;;;;10.98;78.63;95731.06;5035506;28;20729;-68
2022/05/29 04:38:06;;;;;;;6.67;2.20;;;;;;;10.96;79.18;95737.53;5035819;28;20593;-68
2022/05/29 04:40:34;;;;;;;3.57;1.80;;;;;;;11.05;78.93;95741.66;5035808;28;20319;-68
2022/05/29 04:43:00;;;;;;;3.87;1.53;;;;;;;11.01;79.02;95735.16;5034918;28;20202;-68
2022/05/29 04:45:27;;;;;;;6.83;2.67;;;;;;;11.05;78.82;95744.28;5035487;28;20603;-68
2022/05/29 04:47:54;;;;;;;3.80;1.97;;;;;;;10.94;79.02;95736.91;5035651;28;20201;-68
2022/05/29 04:50:20;;;;;;;4.40;2.10;;;;;;;10.98;79.73;95735.50;5035806;28;20201;-68
2022/05/29 04:52:47;;;;;;;3.63;2.10;;;;;;;11.01;79.29;95729.88;5034830;28;20472;-68
2022/05/29 04:55:14;;;;;;;4.80;1.90;;;;;;;10.96;78.89;95727.00;5039138;28;20737;-68
2022/05/29 04:57:42;;;;;;;4.73;2.10;;;;;;;11.08;80.84;95728.09;5039906;28;20230;-68
2022/05/29 05:00:09;;;;;;;8.83;2.10;;;;;;;11.15;80.28;95737.69;5039626;28;20212;-68
2022/05/29 05:02:36;;;;;;;3.17;2.10;;;;;;;11.17;81.00;95724.28;5038549;28;20377;-67
2022/05/29 05:05:04;;;;;;;2.67;1.70;;;;;;;11.19;80.94;95725.72;5039543;28;20248;-68
2022/05/29 05:07:30;;;;;;;3.97;1.90;;;;;;;11.16;80.71;95730.56;5040037;28;20229;-68
2022/05/29 05:09:57;;;;;;;6.43;2.03;;;;;;;11.18;80.26;95726.72;5039337;28;20673;-67
2022/05/29 05:12:23;;;;;;;6.23;2.10;;;;;;;11.27;80.81;95722.94;5038563;28;20212;-68
2022/05/29 05:14:51;;;;;;;4.17;2.10;;;;;;;11.45;82.51;95725.88;5038974;28;20200;-68
2022/05/29 05:17:17;;;;;;;4.90;2.53;;;;;;;11.45;82.25;95723.25;5039324;28;20217;-67
2022/05/29 05:19:44;;;;;;;6.93;2.27;;;;;;;11.61;82.49;95720.34;5039171;28;20197;-68
2022/05/29 05:22:10;;;;;;;4.00;2.07;;;;;;;11.75;81.60;95724.66;5038928;28;20201;-68
2022/05/29 05:24:38;;;;;;;2.97;1.90;;;;;;;12.05;80.16;95728.63;5039608;28;20221;-68
2022/05/29 05:27:05;;;;;;;3.10;2.07;;;;;;;12.09;80.80;95735.16;5040001;28;20227;-69
2022/05/29 05:29:32;;;;;;;8.27;2.00;;;;;;;12.11;79.29;95733.13;5039933;28;20579;-68
2022/05/29 05:31:59;;;;;;;3.53;2.10;;;;;;;12.09;75.77;95733.31;5039723;28;20268;-68
2022/05/29 05:34:27;;;;;;;4.20;1.80;;;;;;;11.89;74.33;95735.09;5039265;28;20205;-68
2022/05/29 05:36:53;;;;;;;4.93;1.87;;;;;;;11.56;76.36;95746.50;5039776;28;20221;-68
2022/05/29 05:39:21;;;;;;;2.70;1.70;;;;;;;11.65;76.04;95750.59;5040355;28;20200;-68
2022/05/29 05:41:47;;;;;;;2.33;1.63;;;;;;;11.79;75.13;95753.09;5039948;28;20271;-68
2022/05/29 05:44:14;;;;;;;3.97;2.00;;;;;;;11.75;75.33;95759.78;5039680;28;20193;-68
2022/05/29 05:46:44;;;;;;;6.27;2.23;;;;;;;11.80;76.59;95753.91;5039860;28;20241;-68
2022/05/29 05:49:12;;;;;;;4.60;2.10;;;;;;;11.76;77.72;95764.06;5040139;28;20201;-68
2022/05/29 05:51:39;;;;;;;3.73;1.97;;;;;;;11.79;77.61;95768.13;5039247;28;20197;-68
2022/05/29 05:54:06;;;;;;;2.53;1.70;;;;;;;11.70;81.00;95761.38;5039466;28;20581;-68
2022/05/29 05:56:32;;;;;;;4.97;2.20;;;;;;;11.89;78.92;95764.13;5039832;28;20256;-68
2022/05/29 05:58:59;;;;;;;4.90;2.20;;;;;;;12.14;76.56;95770.50;5039345;28;21349;-68
2022/05/29 06:01:25;;;;;;;4.53;1.90;;;;;;;12.25;78.93;95765.47;5039042;28;20209;-68
2022/05/29 06:03:52;;;;;;;4.60;2.17;;;;;;;12.48;76.27;95760.66;5038405;28;20582;-68
2022/05/29 06:06:20;;;;;;;4.10;2.10;;;;;;;12.76;76.02;95770.06;5038105;28;20236;-68
2022/05/29 06:08:46;;;;;;;3.53;1.87;;;;;;;12.81;78.03;95759.69;5039316;28;20213;-69
2022/05/29 06:11:13;;;;;;;3.90;2.10;;;;;;;12.99;76.63;95764.44;5038423;28;20209;-68
2022/05/29 06:13:39;;;;;;;7.03;1.87;;;;;;;13.32;73.54;95759.97;5038172;28;20669;-68
2022/05/29 06:16:06;;;;;;;3.53;2.43;;;;;;;13.41;70.58;95762.16;5038854;28;20213;-69
2022/05/29 06:18:32;;;;;;;3.97;1.90;;;;;;;13.57;71.21;95764.41;5038501;28;20205;-69
2022/05/29 06:21:01;;;;;;;4.00;2.23;;;;;;;13.78;68.10;95767.59;5038875;28;20365;-68
2022/05/29 06:23:29;;;;;;;8.38;1.98;;;;;;;13.73;70.55;95761.31;5037679;28;20205;-68
2022/05/29 06:25:56;;;;;;;3.22;1.85;;;;;;;13.57;70.12;95761.75;5038889;28;20236;-69
2022/05/29 06:28:22;;;;;;;3.90;2.03;;;;;;;13.81;69.81;95769.84;5038473;28;20205;-68
2022/05/29 06:30:49;;;;;;;4.45;2.00;;;;;;;13.86;70.21;95772.69;5038340;28;20201;-69
2022/05/29 06:33:16;;;;;;;2.70;1.80;;;;;;;13.90;69.22;95763.31;5036983;28;20783;-69
2022/05/29 06:35:42;;;;;;;3.78;1.80;;;;;;;13.61;69.19;95769.06;5038166;28;20289;-69
2022/05/29 06:38:09;;;;;;;2.97;1.77;;;;;;;13.49;68.66;95757.50;5038019;28;20201;-69
2022/05/29 06:40:38;;;;;;;3.47;1.83;;;;;;;13.55;68.18;95764.59;5037764;28;20206;-70
2022/05/29 06:43:04;;;;;;;5.03;1.80;;;;;;;13.44;68.65;95753.81;5037541;28;20201;-70
2022/05/29 06:45:31;;;;;;;2.60;1.90;;;;;;;13.54;66.13;95760.34;5037721;28;20225;-70
2022/05/29 06:47:57;;;;;;;3.70;1.92;;;;;;;13.73;67.65;95759.47;5038047;28;20209;-68
2022/05/29 06:50:24;;;;;;;2.90;1.60;;;;;;;14.18;67.75;95763.84;5038573;28;20684;-68
2022/05/29 06:52:50;;;;;;;2.40;1.80;;;;;;;14.51;66.50;95754.72;5037649;28;20201;-68
2022/05/29 06:55:17;;;;;;;2.85;1.55;;;;;;;14.70;67.08;95759.91;5037219;28;20193;-69
2022/05/29 06:57:46;;;;;;;3.15;1.63;;;;;;;14.84;62.25;95750.84;5037951;28;20241;-68
2022/05/29 07:08:26;;;;;;;5.25;1.67;;;;;;;15.03;61.62;95757.84;5037931;28;20578;-69
2022/05/29 07:10:54;;;;;;;4.60;1.95;;;;;;;14.90;64.67;95762.41;5037688;28;20209;-69
2022/05/29 07:13:23;;;;;;;2.53;1.42;;;;;;;14.99;62.56;95761.94;5037489;28;20205;-69
2022/05/29 07:15:49;;;;;;;5.25;1.23;;;;;;;14.97;58.10;95750.72;5036982;28;20217;-69
2022/05/29 07:18:16;;;;;;;1.48;1.17;;;;;;;14.75;58.24;95757.41;5037653;28;20948;-69
2022/05/29 07:20:42;;;;;;;5.55;1.60;;;;;;;15.01;59.72;95759.88;5037520;28;20212;-68
2022/05/29 07:23:09;;;;;;;3.78;1.33;;;;;;;15.04;61.49;95764.75;5037304;28;20903;-68
2022/05/29 07:25:36;;;;;;;1.90;1.30;;;;;;;15.05;58.17;95763.72;5038482;28;20261;-69
2022/05/29 07:28:02;;;;;;;2.63;1.10;;;;;;;14.99;56.77;95764.56;5037637;28;20212;-69
2022/05/29 07:30:30;;;;;;;2.63;1.10;;;;;;;14.91;55.84;95770.16;5037415;28;20270;-69
2022/05/29 07:32:58;;;;;;;2.33;1.10;;;;;;;14.86;56.37;95767.31;5036417;28;20205;-68
2022/05/29 07:35:25;;;;;;;3.08;1.10;;;;;;;14.66;58.45;95771.97;5037721;28;20232;-68
2022/05/29 07:37:51;;;;;;;4.57;1.35;;;;;;;14.48;58.83;95775.53;5037826;28;20201;-68
2022/05/29 07:40:18;;;;;;;2.05;1.10;;;;;;;14.33;61.00;95773.16;5037575;28;20204;-68
2022/05/29 07:45:30;;;;;;;2.47;1.30;;;;;;;14.43;61.75;95780.66;5037311;28;20594;-69
2022/05/29 07:47:56;;;;;;;2.22;1.00;;;;;;;14.24;60.43;95778.88;5037247;28;20662;-69
2022/05/29 07:50:23;;;;;;;2.97;1.50;;;;;;;14.34;62.19;95780.06;5037663;28;20616;-69
2022/05/29 07:52:52;;;;;;;1.73;0.90;;;;;;;14.61;61.17;95768.28;5036808;28;20208;-69
2022/05/29 07:55:19;;;;;;;1.70;0.93;;;;;;;14.35;59.90;95775.59;5036888;28;20263;-69
2022/05/29 07:57:46;;;;;;;1.60;1.02;;;;;;;14.30;59.04;95778.84;5036678;28;20696;-69
2022/05/29 08:00:16;;;;;;;2.25;0.93;;;;;;;14.58;60.70;95770.59;5036997;28;20209;-69
2022/05/29 08:02:44;;;;;;;4.07;1.10;;;;;;;14.54;61.28;95774.69;5036457;28;20212;-69
2022/05/29 08:05:12;;;;;;;5.30;1.13;;;;;;;14.86;57.86;95780.59;5036281;28;20228;-69
2022/05/29 08:07:39;;;;;;;3.88;0.93;;;;;;;14.86;61.34;95780.59;5036492;28;20208;-69
2022/05/29 08:10:07;;;;;;;6.72;1.42;;;;;;;15.24;62.09;95773.41;5036893;28;20212;-69
2022/05/29 08:12:34;;;;;;;5.80;1.17;;;;;;;15.07;59.09;95782.91;5035556;28;20206;-69
2022/05/29 08:15:00;;;;;;;4.30;1.52;;;;;;;14.97;60.47;95781.75;5037067;28;20260;-69
2022/05/29 08:17:27;;;;;;;3.22;1.38;;;;;;;14.90;60.18;95783.63;5036515;28;20807;-69
2022/05/29 08:19:55;;;;;;;4.72;1.20;;;;;;;15.01;60.98;95777.66;5037034;28;20212;-69
2022/05/29 08:22:22;;;;;;;3.17;1.27;;;;;;;15.16;59.93;95775.47;5036058;28;20263;-69
2022/05/29 08:33:04;;;;;;;1.17;0.93;;;;;;;15.52;55.25;95784.41;5035414;28;20299;-69
2022/05/29 08:35:32;;;;;;;1.77;0.93;;;;;;;15.62;56.10;95774.13;5035636;28;20255;-69
2022/05/29 08:38:00;;;;;;;11.77;1.13;;;;;;;15.55;57.00;95776.00;5035418;28;20670;-69
2022/05/29 08:40:27;;;;;;;2.97;1.17;;;;;;;15.65;57.21;95777.13;5036574;28;20655;-69
2022/05/29 08:42:54;;;;;;;4.85;1.30;;;;;;;15.83;57.87;95769.19;5034974;28;20307;-69
2022/05/29 08:47:51;;;;;;;3.90;1.30;;;;;;;15.88;61.99;95777.31;5052709;27;21062;-71
2022/05/29 08:50:21;;;;;;;2.58;1.45;;;;;;;16.31;58.61;95764.78;5053320;28;20640;-71
2022/05/29 08:53:00;;;;;;;2.60;1.08;;;;;;;15.96;57.50;95769.03;5053551;28;20209;-71
2022/05/29 08:55:31;;;;;;;2.20;1.30;;;;;;;15.59;58.27;95767.41;5053125;28;20208;-70
2022/05/29 08:58:07;;;;;;;2.00;1.20;;;;;;;15.15;58.96;95763.22;5052190;28;20235;-71
2022/05/29 09:00:46;;;;;;;1.65;1.17;;;;;;;15.61;59.05;95767.16;5052515;28;20203;-71
2022/05/29 09:03:28;;;;;;;3.55;1.42;;;;;;;15.60;59.16;95776.16;5051631;28;20212;-71
2022/05/29 09:06:01;;;;;;;5.28;1.20;;;;;;;15.48;57.67;95775.25;5051954;28;20220;-71
2022/05/29 09:08:33;;;;;;;2.95;1.13;;;;;;;15.38;57.65;95780.25;5052381;28;20212;-71
2022/05/29 09:11:05;;;;;;;4.25;1.50;;;;;;;15.45;56.73;95770.38;5051242;28;20243;-71
2022/05/29 09:13:39;;;;;;;2.53;0.98;;;;;;;15.53;54.80;95772.75;5050449;28;20205;-71
2022/05/29 09:16:12;;;;;;;3.65;1.27;;;;;;;15.55;56.64;95770.69;5052377;28;20315;-71
2022/05/29 09:18:43;;;;;;;4.47;1.10;;;;;;;15.35;56.64;95775.34;5051306;28;20692;-71
2022/05/29 09:21:14;;;;;;;2.92;1.30;;;;;;;15.79;58.84;95775.97;5050664;28;20205;-71
2022/05/29 09:23:47;;;;;;;2.92;1.05;;;;;;;16.02;55.97;95768.16;5052384;28;20204;-71
2022/05/29 09:26:19;;;;;;;2.58;1.08;;;;;;;15.18;56.54;95774.25;5052056;28;20217;-68
2022/05/29 09:28:46;;;;;;;1.60;1.17;;;;;;;14.97;55.75;95777.25;5052461;28;20233;-68
2022/05/29 09:31:18;;;;;;;2.25;0.90;;;;;;;15.51;55.56;95774.81;5053077;28;21027;-69
2022/05/29 09:33:46;;;;;;;1.20;1.10;;;;;;;16.14;56.28;95771.69;5052102;28;20211;-68
2022/05/29 09:36:30;;;;;;;3.10;1.00;;;;;;;16.69;50.88;95761.63;5052967;28;20235;-68
2022/05/29 09:39:02;;;;;;;3.47;1.08;;;;;;;16.79;54.84;95761.06;5053330;28;20204;-69
2022/05/29 09:41:32;;;;;;;2.00;1.15;;;;;;;16.79;53.32;95763.72;5052406;28;20833;-68
2022/05/29 09:44:11;;;;;;;4.18;1.67;;;;;;;17.00;52.75;95757.91;5052391;28;20205;-68
2022/05/29 09:46:39;;;;;;;2.85;1.40;;;;;;;17.26;52.07;95758.31;5052960;28;20232;-69
2022/05/29 09:52:04;;;;;;;3.30;1.10;;;;;;;16.87;54.79;95758.09;5050300;28;20278;-69
2022/05/29 09:54:34;;;;;;;1.52;1.20;;;;;;;16.91;53.51;95757.41;5053768;28;20204;-69
2022/05/29 09:57:09;;;;;;;1.50;0.98;;;;;;;17.05;55.02;95752.72;5051415;28;20225;-68
2022/05/29 09:59:42;;;;;;;1.10;1.00;;;;;;;16.73;53.36;95762.78;5038054;28;20209;-69
2022/05/29 10:02:24;;;;;;;3.08;1.10;;;;;;;16.06;52.15;95756.06;5038520;28;20211;-70
2022/05/29 10:04:55;;;;;;;2.67;1.00;;;;;;;16.14;51.61;95758.41;5036319;28;20771;-69
2022/05/29 10:07:32;;;;;;;3.38;0.90;;;;;;;16.02;53.40;95758.34;5038489;28;20246;-69
2022/05/29 10:10:01;;;;;;;2.03;0.88;;;;;;;15.55;53.94;95758.22;5038671;28;20821;-69
2022/05/29 10:12:39;;;;;;;4.53;0.90;;;;;;;15.26;54.77;95752.75;5037557;28;20201;-69
2022/05/29 10:15:13;;;;;;;3.88;1.15;;;;;;;15.29;58.44;95747.03;5038624;28;20990;-68
2022/05/29 10:17:40;;;;;;;1.35;0.90;;;;;;;14.99;56.35;95747.84;5038821;28;20225;-68
2022/05/29 10:20:26;;;;;;;4.07;1.00;;;;;;;15.04;55.22;95740.88;5038637;28;20217;-69
2022/05/29 10:22:54;;;;;;;1.00;0.90;;;;;;;15.04;56.90;95740.06;5038503;28;20292;-69
2022/05/29 10:25:25;;;;;;;3.28;1.10;;;;;;;15.27;56.17;95736.66;5039709;28;20209;-69
2022/05/29 10:27:54;;;;;;;2.58;0.82;;;;;;;15.47;56.98;95747.88;5038821;28;20197;-69
2022/05/29 10:30:33;;;;;;;2.05;0.90;;;;;;;15.61;55.45;95738.75;5038664;28;20197;-69
2022/05/29 10:33:05;;;;;;;4.20;1.20;;;;;;;16.15;54.14;95733.44;5038340;28;20292;-69
2022/05/29 10:35:36;;;;;;;2.13;1.00;;;;;;;16.56;53.00;95734.41;5038701;28;20232;-69
2022/05/29 10:38:15;;;;;;;1.80;1.00;;;;;;;17.13;55.35;95734.53;5038458;28;20224;-69
2022/05/29 10:40:44;;;;;;;4.95;0.95;;;;;;;17.57;53.36;95736.72;5038197;28;20213;-69
2022/05/29 10:43:10;;;;;;;1.58;0.80;;;;;;;16.62;54.71;95733.47;5037855;28;20699;-69
2022/05/29 10:45:44;;;;;;;3.50;1.17;;;;;;;16.86;53.90;95740.50;5038261;28;20221;-69
2022/05/29 10:48:42;;;;;;;7.20;0.93;;;;;;;16.69;58.09;95743.00;5037617;28;20205;-69
2022/05/29 10:51:19;;;;;;;3.38;1.10;;;;;;;15.64;57.39;95743.63;5038079;28;20201;-69
2022/05/29 10:54:00;;;;;;;3.58;1.10;;;;;;;15.75;58.96;95734.13;5037625;28;20216;-69
2022/05/29 10:56:37;;;;;;;4.25;1.10;;;;;;;15.24;57.39;95746.06;5038761;28;20235;-69
2022/05/29 10:59:35;;;;;;;2.25;1.00;;;;;;;15.43;58.64;95735.28;5037854;28;20201;-69
2022/05/29 11:05:34;;;;;;;0.90;0.80;;;;;;;16.71;54.66;95734.78;5037842;28;20637;-68
2022/05/29 11:08:26;;;;;;;4.03;1.20;;;;;;;16.61;54.82;95729.19;5029452;28;20201;-69
2022/05/29 11:11:16;;;;;;;3.17;1.00;;;;;;;17.59;52.98;95727.44;5036430;28;20201;-69
2022/05/29 11:14:08;;;;;;;3.42;1.00;;;;;;;17.51;52.20;95729.63;5037081;28;20205;-69
2022/05/29 11:16:47;;;;;;;1.58;1.00;;;;;;;17.87;49.83;95719.53;5037066;28;20233;-69
2022/05/29 11:19:31;;;;;;;4.40;1.30;;;;;;;18.51;53.19;95712.91;5037265;28;20255;-69
2022/05/29 11:22:10;;;;;;;1.77;1.00;;;;;;;17.69;54.24;95717.00;5034877;28;20197;-69
2022/05/29 11:24:54;;;;;;;4.25;1.30;;;;;;;17.78;49.99;95710.25;5038106;28;20208;-69
2022/05/29 11:27:41;;;;;;;2.92;0.90;;;;;;;17.76;50.46;95712.38;5036751;28;20217;-69
2022/05/29 11:30:11;;;;;;;1.75;0.95;;;;;;;17.73;53.36;95710.97;5037652;28;20587;-69
2022/05/29 11:32:58;;;;;;;3.10;0.90;;;;;;;17.72;50.95;95722.69;5035999;28;20224;-69
2022/05/29 11:35:38;;;;;;;1.08;0.80;;;;;;;17.68;51.30;95711.91;5036597;28;20208;-69
2022/05/29 11:38:23;;;;;;;1.17;0.90;;;;;;;17.21;50.69;95708.41;5037085;28;20224;-69
2022/05/29 11:40:55;;;;;;;5.18;1.10;;;;;;;16.77;51.52;95702.75;5036600;28;20216;-69
2022/05/29 11:43:28;;;;;;;1.50;0.93;;;;;;;17.31;53.41;95706.00;5033877;28;20220;-69
2022/05/29 11:51:39;;;;;;;2.40;0.90;;;;;;;17.55;49.41;95714.81;5035987;28;20254;-69
2022/05/29 11:54:12;;;;;;;3.33;0.90;;;;;;;17.70;50.67;95715.94;5035728;28;20205;-69
2022/05/29 11:56:44;;;;;;;3.97;0.95;;;;;;;17.10;52.91;95721.69;5036450;28;20787;-69
2022/05/29 11:59:18;;;;;;;1.67;0.90;;;;;;;16.50;53.73;95729.97;5036321;28;20217;-68
2022/05/29 12:01:51;;;;;;;2.60;1.30;;;;;;;16.60;51.25;95714.28;5037048;28;20196;-69
2022/05/29 12:04:27;;;;;;;5.28;1.30;;;;;;;16.68;53.06;95716.63;5035457;28;20197;-68
2022/05/29 12:06:58;;;;;;;2.03;1.13;;;;;;;16.84;51.54;95716.78;5036176;28;20227;-69
2022/05/29 12:09:33;;;;;;;2.97;1.20;;;;;;;16.06;51.88;95726.81;5036982;28;20205;-69
2022/05/29 12:12:07;;;;;;;3.47;0.80;;;;;;;15.98;53.90;95719.94;5034904;28;20566;-69
2022/05/29 12:14:39;;;;;;;3.15;1.30;;;;;;;16.06;54.40;95722.31;5035536;28;20577;-69
2022/05/29 12:17:12;;;;;;;4.03;1.00;;;;;;;15.84;52.34;95713.16;5036545;28;20255;-69
2022/05/29 12:19:43;;;;;;;3.67;0.93;;;;;;;15.61;54.34;95722.03;5035321;28;20216;-69
2022/05/29 12:22:12;;;;;;;1.98;0.93;;;;;;;15.41;54.48;95726.69;5032988;28;20205;-69
2022/05/29 12:24:42;;;;;;;2.58;1.00;;;;;;;15.34;56.70;95725.97;5036388;28;20210;-69
2022/05/29 12:27:15;;;;;;;1.35;0.80;;;;;;;15.69;57.39;95721.72;5035690;28;20229;-69
2022/05/29 12:29:47;;;;;;;1.88;1.17;;;;;;;15.44;56.10;95727.09;5035796;28;20689;-69
2022/05/29 12:32:21;;;;;;;4.72;1.10;;;;;;;15.32;55.40;95731.50;5035127;28;20221;-69
2022/05/29 12:34:54;;;;;;;2.08;1.00;;;;;;;15.03;59.38;95728.66;5035580;28;20198;-69